Terminal Aerodrome Forecast
Issued by NWS Atlanta, GA

Home | Current Version | Previous Version | Text Only | Print | Product List | Glossary On
Versions: 1 2 3 4 5 6 7 8 9 10 11 12 13 14
000
FTUS42 KFFC 271121
TAFMCN
TAF
KMCN 271121Z 2712/2812 09004KT P6SM FEW070
     FM271400 10007KT P6SM FEW045
     FM271800 11010KT P6SM FEW060
     FM280000 10004KT P6SM FEW080=

USA.gov is the U.S. government's official web portal to all federal, state and local government web resources and services.